North Portal, Canada
Current Conditions -  °F | °C
As of 11:00 AM on Thursday 30 Oct 2014 (Local Time) from CYEN Reporting Station
Overcast Overcast  
Wind Chill: 26°   Ceiling: 1600
Heat Index: 34°   Visibility: 15mi
Dew Point: 27°   Wind: 10mph
Humidity: 75%   Direction: 50°NE
Pressure: 30.43"   Gusts: NA
Location:  49°N, 102.55°W
Report Text: CYEN 301700Z 05009KT 15SM OVC016 01/M03 A3043 RMK SC8 PRESRR SLP333
Loading
Personal Weather Stations






























Interactive Weather Map
Tropical Storm Tracking
New forecast layout! Learn more

10-Day Weather Forecast

Advertisements
Track Severe Weather on mobile